Narrows, Virginia
Current Conditions -  °F | °C
As of 9:15 AM on Sunday 21 Dec 2014 (Local Time) from KPSK Reporting Station
Overcast Overcast  
Wind Chill: 37°   Ceiling: 2200
Heat Index: 37°   Visibility: 10mi
Dew Point: 33°   Wind: 0mph
Humidity: 84%   Direction: NA
Pressure: 30.26"   Gusts: NA
Location:  37.33°N, 80.81°W
Report Text: KPSK 211415Z AUTO 00000KT 10SM OVC022 03/00 A3026 RMK AO2 T00290004
Loading
Personal Weather Stations






























Interactive Weather Map New forecast layout! Learn more

10-Day Weather Forecast

Advertisements
Track Severe Weather on mobile